Time;durP1;ratioP1;P1;durP2;ratioP2;P2;SDS_P1;SDS_P2;PMS_P1;PMS_P2;Temp;Humidity;BMP_temperature;BMP_pressure;BME280_temperature;BME280_humidity;BME280_pressure;Samples;Min_cycle;Max_cycle;Signal;HPM_P1;HPM_P2
2024/01/07 00:00:20;;;;;;;15.90;9.30;;;3.30;99.90;;;;;;4938388;29;20035;-84
2024/01/07 00:02:46;;;;;;;15.43;9.63;;;3.30;99.90;;;;;;4943348;28;20035;-84
2024/01/07 00:05:12;;;;;;;17.33;9.80;;;3.30;99.90;;;;;;4942520;28;20073;-84
2024/01/07 00:07:38;;;;;;;15.98;10.00;;;3.20;99.90;;;;;;4959048;28;20450;-83
2024/01/07 00:10:04;;;;;;;15.95;9.45;;;3.30;99.90;;;;;;4941207;29;20476;-83
2024/01/07 00:12:30;;;;;;;15.07;9.88;;;3.30;99.90;;;;;;4923638;28;20093;-83
2024/01/07 00:14:56;;;;;;;16.65;9.57;;;3.30;99.90;;;;;;4927416;28;20023;-85
2024/01/07 00:17:22;;;;;;;14.73;8.68;;;3.30;99.90;;;;;;4940506;28;20038;-83
2024/01/07 00:19:48;;;;;;;15.05;9.07;;;3.30;99.90;;;;;;4937708;29;20035;-84
2024/01/07 00:22:13;;;;;;;15.52;9.18;;;3.30;99.90;;;;;;4938392;28;20085;-83
2024/01/07 00:24:39;;;;;;;15.77;9.30;;;3.30;99.90;;;;;;4941622;28;20031;-83
2024/01/07 00:27:05;;;;;;;14.57;9.90;;;3.30;99.90;;;;;;4931845;29;20051;-83
2024/01/07 00:29:31;;;;;;;16.85;9.60;;;3.30;99.90;;;;;;4952905;28;20035;-84
2024/01/07 00:31:56;;;;;;;15.52;8.88;;;3.20;99.90;;;;;;4939397;28;20027;-84
2024/01/07 00:34:22;;;;;;;16.33;8.80;;;3.20;99.90;;;;;;4943566;28;20053;-85
2024/01/07 00:36:49;;;;;;;17.83;8.98;;;3.20;99.90;;;;;;4953598;28;20131;-85
2024/01/07 00:39:15;;;;;;;13.65;8.18;;;3.20;99.90;;;;;;4925089;29;20114;-84
2024/01/07 00:41:40;;;;;;;17.85;9.00;;;3.20;99.90;;;;;;4942136;29;20050;-84
2024/01/07 00:44:06;;;;;;;15.32;8.80;;;3.20;99.90;;;;;;4937500;29;20031;-83
2024/01/07 00:46:32;;;;;;;19.13;8.80;;;3.20;99.90;;;;;;4953433;28;20043;-83
2024/01/07 00:48:58;;;;;;;16.58;8.95;;;3.10;99.90;;;;;;4945048;28;20034;-85
2024/01/07 00:51:23;;;;;;;16.75;9.40;;;3.10;99.90;;;;;;4921809;28;20096;-84
2024/01/07 00:53:49;;;;;;;16.77;8.73;;;3.10;99.90;;;;;;4936700;29;20035;-85
2024/01/07 00:56:15;;;;;;;17.67;8.80;;;3.10;99.90;;;;;;4938660;28;20036;-82
2024/01/07 00:58:43;;;;;;;15.93;9.65;;;3.00;99.90;;;;;;4931630;29;20105;-84
2024/01/07 01:01:09;;;;;;;16.52;9.23;;;3.00;99.90;;;;;;4936839;29;20034;-85
2024/01/07 01:03:36;;;;;;;16.40;8.90;;;3.00;99.90;;;;;;4938396;28;20492;-83
2024/01/07 01:06:02;;;;;;;13.20;8.00;;;2.90;99.90;;;;;;4956159;28;20058;-85
2024/01/07 01:08:28;;;;;;;13.10;8.18;;;2.90;99.90;;;;;;4964287;28;20050;-86
2024/01/07 01:10:53;;;;;;;15.32;8.55;;;2.90;99.90;;;;;;4953246;28;20496;-84
2024/01/07 01:13:19;;;;;;;14.13;7.65;;;2.90;99.90;;;;;;4936655;29;20122;-84
2024/01/07 01:15:45;;;;;;;13.32;7.97;;;2.90;99.90;;;;;;4952446;28;20455;-84
2024/01/07 01:18:11;;;;;;;13.55;7.60;;;2.90;99.90;;;;;;4955221;28;20518;-84
2024/01/07 01:20:37;;;;;;;14.80;8.10;;;2.80;99.90;;;;;;4941124;28;20035;-83
2024/01/07 01:23:03;;;;;;;14.93;8.20;;;2.80;99.90;;;;;;4942748;28;20050;-85
2024/01/07 01:25:29;;;;;;;14.82;7.95;;;2.70;99.90;;;;;;4961167;28;20039;-85
2024/01/07 01:27:56;;;;;;;13.93;7.90;;;2.80;99.90;;;;;;4942169;28;20039;-83
2024/01/07 01:30:22;;;;;;;13.20;7.95;;;2.70;99.90;;;;;;4946436;28;20027;-85
2024/01/07 01:32:47;;;;;;;13.82;8.23;;;2.80;99.90;;;;;;4952633;28;20210;-85
2024/01/07 01:35:13;;;;;;;14.05;7.75;;;2.70;99.90;;;;;;4937631;28;20032;-84
2024/01/07 01:37:40;;;;;;;14.02;7.72;;;2.70;99.90;;;;;;4940541;28;20122;-84
2024/01/07 01:40:06;;;;;;;13.07;7.70;;;2.70;99.90;;;;;;4939825;29;20136;-85
2024/01/07 01:42:31;;;;;;;14.65;8.48;;;2.70;99.90;;;;;;4921463;28;20035;-83
2024/01/07 01:45:01;;;;;;;16.42;8.43;;;2.70;99.90;;;;;;4939678;28;20039;-83
2024/01/07 01:47:28;;;;;;;14.07;7.32;;;2.70;99.90;;;;;;4936065;28;20068;-85
2024/01/07 01:49:54;;;;;;;13.85;8.32;;;2.60;99.90;;;;;;4934424;28;20403;-86
2024/01/07 01:52:20;;;;;;;15.23;9.35;;;2.60;99.90;;;;;;4962293;28;20026;-84
2024/01/07 01:54:46;;;;;;;15.07;8.50;;;2.60;99.90;;;;;;4948296;28;20033;-84
2024/01/07 01:57:19;;;;;;;19.10;8.82;;;2.60;99.90;;;;;;4945690;28;20052;-86
2024/01/07 01:59:44;;;;;;;19.35;9.45;;;2.60;99.90;;;;;;4951025;28;20121;-87
2024/01/07 02:02:11;;;;;;;15.20;8.55;;;2.60;99.90;;;;;;4929171;28;20125;-86
2024/01/07 02:04:37;;;;;;;15.43;8.18;;;2.60;99.90;;;;;;4924151;28;20035;-82
2024/01/07 02:07:02;;;;;;;17.67;9.07;;;2.60;99.90;;;;;;4948251;28;20065;-83
2024/01/07 02:09:28;;;;;;;14.30;8.02;;;2.50;99.90;;;;;;4945618;28;20566;-83
2024/01/07 02:12:02;;;;;;;16.17;8.80;;;2.50;99.90;;;;;;4945082;29;20027;-85
2024/01/07 02:14:28;;;;;;;16.98;8.13;;;2.50;99.90;;;;;;4952341;28;20736;-85
2024/01/07 02:16:54;;;;;;;16.27;8.68;;;2.50;99.90;;;;;;4952339;28;20068;-85
2024/01/07 02:19:21;;;;;;;15.05;8.23;;;2.50;99.90;;;;;;4912732;28;20062;-85
2024/01/07 02:21:47;;;;;;;13.85;7.72;;;2.50;99.90;;;;;;4935620;28;20521;-85
2024/01/07 02:24:17;;;;;;;12.88;7.63;;;2.40;99.90;;;;;;4924326;28;20487;-84
2024/01/07 02:26:42;;;;;;;14.93;7.25;;;2.30;99.90;;;;;;4954703;28;20032;-86
2024/01/07 02:29:08;;;;;;;15.20;7.45;;;2.30;99.90;;;;;;4965161;28;20033;-84
2024/01/07 02:31:34;;;;;;;12.20;7.15;;;2.30;99.90;;;;;;4955005;28;20053;-85
2024/01/07 02:33:59;;;;;;;15.30;7.80;;;2.30;99.90;;;;;;4942229;28;20047;-84
2024/01/07 02:36:25;;;;;;;11.45;6.60;;;2.30;99.90;;;;;;4941788;28;20380;-83
2024/01/07 02:38:51;;;;;;;13.02;7.07;;;2.30;99.90;;;;;;4946584;28;20046;-86
2024/01/07 02:41:16;;;;;;;12.65;6.90;;;2.20;99.90;;;;;;4957804;28;20063;-86
2024/01/07 02:43:42;;;;;;;14.93;7.35;;;2.20;99.90;;;;;;4930655;29;20032;-87
2024/01/07 02:46:08;;;;;;;12.40;7.18;;;2.20;99.90;;;;;;4934913;29;20031;-84
2024/01/07 02:48:34;;;;;;;11.45;6.55;;;2.20;99.90;;;;;;4956242;28;20380;-85
2024/01/07 02:51:03;;;;;;;10.68;6.72;;;2.10;99.90;;;;;;4943402;28;20027;-83
2024/01/07 02:53:29;;;;;;;12.45;6.68;;;2.10;99.90;;;;;;4945422;28;20027;-86
2024/01/07 02:55:54;;;;;;;10.90;6.55;;;2.10;99.90;;;;;;4945827;28;20035;-85
2024/01/07 02:58:20;;;;;;;10.23;5.82;;;2.10;99.90;;;;;;4945347;28;20114;-85
2024/01/07 03:00:46;;;;;;;9.65;6.20;;;2.10;99.90;;;;;;4944777;28;20027;-83
2024/01/07 03:03:11;;;;;;;10.32;6.63;;;2.10;99.90;;;;;;4947960;28;20034;-86
2024/01/07 03:05:37;;;;;;;10.93;6.10;;;2.10;99.90;;;;;;4939284;28;20035;-85
2024/01/07 03:08:03;;;;;;;11.25;6.15;;;2.10;99.90;;;;;;4941808;28;20072;-86
2024/01/07 03:10:29;;;;;;;11.15;5.97;;;2.00;99.90;;;;;;4956327;28;20035;-85
2024/01/07 03:12:55;;;;;;;9.18;5.63;;;2.00;99.90;;;;;;4955372;28;20082;-85
2024/01/07 03:15:21;;;;;;;12.98;7.38;;;2.00;99.90;;;;;;4939299;28;20032;-85
2024/01/07 03:17:47;;;;;;;9.77;5.95;;;1.90;99.90;;;;;;4960972;28;20032;-85
2024/01/07 03:20:12;;;;;;;12.40;6.47;;;1.90;99.90;;;;;;4943667;28;20034;-85
2024/01/07 03:22:38;;;;;;;12.10;7.20;;;1.90;99.90;;;;;;4943590;28;20039;-85
2024/01/07 03:25:04;;;;;;;11.00;6.50;;;1.80;99.90;;;;;;4963365;28;20031;-85
2024/01/07 03:27:30;;;;;;;10.75;5.95;;;1.80;99.90;;;;;;4909781;28;20078;-85
2024/01/07 03:29:56;;;;;;;10.25;6.22;;;1.80;99.90;;;;;;4946786;28;20090;-86
2024/01/07 03:32:21;;;;;;;8.95;5.28;;;1.70;99.90;;;;;;4938211;29;20039;-87
2024/01/07 03:34:47;;;;;;;9.52;5.10;;;1.70;99.90;;;;;;4956361;28;20600;-85
2024/01/07 03:37:13;;;;;;;11.77;5.55;;;1.70;99.90;;;;;;4928552;28;20111;-86
2024/01/07 03:39:38;;;;;;;10.93;5.78;;;1.70;99.90;;;;;;4944059;28;20062;-84
2024/01/07 03:42:11;;;;;;;9.18;5.50;;;1.70;99.90;;;;;;4945461;28;20574;-86
2024/01/07 03:44:39;;;;;;;9.82;5.72;;;1.70;99.90;;;;;;4927336;28;20039;-85
2024/01/07 03:47:06;;;;;;;10.63;6.15;;;1.70;99.90;;;;;;4946975;28;20413;-85
2024/01/07 03:49:32;;;;;;;11.65;6.03;;;1.70;99.90;;;;;;4932226;28;20078;-85
2024/01/07 03:51:57;;;;;;;8.35;5.18;;;1.60;99.90;;;;;;4932737;28;20035;-83
2024/01/07 03:54:23;;;;;;;10.18;5.53;;;1.50;99.90;;;;;;4957842;28;20031;-85
2024/01/07 03:56:49;;;;;;;11.43;6.00;;;1.50;99.90;;;;;;4943772;28;20443;-84
2024/01/07 03:59:15;;;;;;;12.30;6.82;;;1.60;99.90;;;;;;4945162;28;20129;-86
2024/01/07 04:01:40;;;;;;;13.05;7.15;;;1.60;99.90;;;;;;4953369;28;20058;-85
2024/01/07 04:04:06;;;;;;;12.20;6.45;;;1.50;99.90;;;;;;4947945;28;20035;-86
2024/01/07 04:06:32;;;;;;;15.07;7.63;;;1.50;99.90;;;;;;4931014;28;20483;-86
2024/01/07 04:08:58;;;;;;;13.00;6.53;;;1.50;99.90;;;;;;4962105;28;20407;-86
2024/01/07 04:11:24;;;;;;;14.00;7.00;;;1.50;99.90;;;;;;4943534;28;20019;-88
2024/01/07 04:13:49;;;;;;;15.65;8.05;;;1.50;99.90;;;;;;4954467;28;20036;-86
2024/01/07 04:16:18;;;;;;;14.02;7.43;;;1.40;99.90;;;;;;4949585;28;20027;-90
2024/01/07 04:18:45;;;;;;;20.30;8.68;;;1.40;99.90;;;;;;4963949;28;20034;-87
2024/01/07 04:21:11;;;;;;;14.77;8.20;;;1.40;99.90;;;;;;4945717;29;20031;-88
2024/01/07 04:23:38;;;;;;;14.07;7.70;;;1.40;99.90;;;;;;4942757;28;20032;-87
2024/01/07 04:26:04;;;;;;;13.75;7.70;;;1.40;99.90;;;;;;4963256;28;20398;-87
2024/01/07 04:28:30;;;;;;;14.18;7.25;;;1.40;99.90;;;;;;4960281;28;20031;-87
2024/01/07 04:30:56;;;;;;;14.52;8.30;;;1.30;99.90;;;;;;4938377;28;20090;-88
2024/01/07 04:33:22;;;;;;;14.82;8.30;;;1.30;99.90;;;;;;4962499;28;20027;-86
2024/01/07 04:35:48;;;;;;;14.07;7.78;;;1.40;99.90;;;;;;4963269;28;20555;-87
2024/01/07 04:38:14;;;;;;;16.92;8.43;;;1.30;99.90;;;;;;4942729;28;20607;-88
2024/01/07 04:40:40;;;;;;;15.77;7.75;;;1.30;99.90;;;;;;4947731;28;20143;-88
2024/01/07 04:43:06;;;;;;;16.77;8.18;;;1.30;99.90;;;;;;4968127;28;20050;-87
2024/01/07 04:45:31;;;;;;;14.68;7.97;;;1.30;99.90;;;;;;4959125;28;20521;-87
2024/01/07 04:47:57;;;;;;;15.90;8.48;;;1.30;99.90;;;;;;4951396;28;20062;-88
2024/01/07 04:50:23;;;;;;;17.90;8.38;;;1.30;99.90;;;;;;4947443;28;20023;-87
2024/01/07 04:52:49;;;;;;;16.35;9.55;;;1.30;99.90;;;;;;4966147;28;20381;-87
2024/01/07 04:55:14;;;;;;;17.92;9.20;;;1.30;99.90;;;;;;4947939;28;20030;-87
2024/01/07 04:57:40;;;;;;;17.38;9.80;;;1.30;99.90;;;;;;4950266;28;20043;-88
2024/01/07 05:00:06;;;;;;;16.85;9.57;;;1.30;99.90;;;;;;4967779;28;20035;-88
2024/01/07 05:02:32;;;;;;;20.75;10.02;;;1.20;99.90;;;;;;4946181;28;20106;-88
2024/01/07 05:04:58;;;;;;;19.17;10.60;;;1.20;99.90;;;;;;4948850;28;20050;-87
2024/01/07 05:07:24;;;;;;;17.85;9.48;;;1.20;99.90;;;;;;4948203;28;20042;-88
2024/01/07 05:09:50;;;;;;;20.73;10.05;;;1.10;99.90;;;;;;4946686;29;20027;-87
2024/01/07 05:12:16;;;;;;;18.45;10.20;;;1.10;99.90;;;;;;4941904;28;20037;-87
2024/01/07 05:14:42;;;;;;;21.30;10.68;;;1.10;99.90;;;;;;4947032;28;20034;-87
2024/01/07 05:17:10;;;;;;;20.98;11.90;;;1.10;99.90;;;;;;4945178;28;20037;-88
2024/01/07 05:19:35;;;;;;;23.92;12.05;;;1.10;99.90;;;;;;4939528;28;20031;-87
2024/01/07 05:22:01;;;;;;;21.92;11.43;;;1.00;99.90;;;;;;4961767;28;20082;-87
2024/01/07 05:24:27;;;;;;;21.50;11.13;;;1.00;99.90;;;;;;4958572;28;20130;-87
2024/01/07 05:26:53;;;;;;;23.05;11.55;;;1.00;99.90;;;;;;4943124;28;20069;-87
2024/01/07 05:29:19;;;;;;;21.98;12.63;;;1.00;99.90;;;;;;4948837;28;20059;-88
2024/01/07 05:31:44;;;;;;;21.70;12.73;;;1.00;99.90;;;;;;4946765;28;20516;-87
2024/01/07 05:34:10;;;;;;;24.92;13.40;;;1.00;99.90;;;;;;4964413;28;20034;-88
2024/01/07 05:36:36;;;;;;;25.10;13.20;;;1.00;99.90;;;;;;4945571;28;20046;-87
2024/01/07 05:39:03;;;;;;;26.13;13.45;;;1.00;99.90;;;;;;4961241;28;20034;-86
2024/01/07 05:41:28;;;;;;;23.48;13.02;;;1.00;99.90;;;;;;4959454;28;20027;-87
2024/01/07 05:43:54;;;;;;;23.23;13.02;;;0.90;99.90;;;;;;4964972;28;20031;-86
2024/01/07 05:46:20;;;;;;;27.20;13.65;;;0.90;99.90;;;;;;4942258;28;20065;-85
2024/01/07 05:48:48;;;;;;;26.77;13.77;;;0.80;99.90;;;;;;4943889;28;20031;-88
2024/01/07 05:51:15;;;;;;;23.60;12.85;;;0.80;99.90;;;;;;4929405;28;20148;-88
2024/01/07 05:53:41;;;;;;;26.33;14.60;;;0.80;99.90;;;;;;4950646;28;20028;-87
2024/01/07 05:56:07;;;;;;;27.88;15.10;;;0.80;99.90;;;;;;4954931;28;20074;-88
2024/01/07 05:58:33;;;;;;;25.10;14.68;;;0.80;99.90;;;;;;4945689;28;21636;-88
2024/01/07 06:01:00;;;;;;;23.25;14.05;;;0.80;99.90;;;;;;4943784;28;20039;-87
2024/01/07 06:03:26;;;;;;;25.65;13.57;;;0.80;99.90;;;;;;4942418;28;20027;-87
2024/01/07 06:05:52;;;;;;;25.77;13.88;;;0.70;99.90;;;;;;4946285;28;20459;-87
2024/01/07 06:08:17;;;;;;;27.55;13.95;;;0.70;99.90;;;;;;4963119;28;20045;-87
2024/01/07 06:10:44;;;;;;;26.88;13.98;;;0.70;99.90;;;;;;4944316;28;20064;-88
2024/01/07 06:13:09;;;;;;;24.83;13.98;;;0.60;99.90;;;;;;4943121;28;20033;-88
2024/01/07 06:15:35;;;;;;;26.00;13.80;;;0.60;99.90;;;;;;4921631;28;21138;-87
2024/01/07 06:18:01;;;;;;;26.83;13.40;;;0.60;99.90;;;;;;4955004;28;20023;-88
2024/01/07 06:20:28;;;;;;;24.75;14.52;;;0.50;99.90;;;;;;4957151;28;20413;-88
2024/01/07 06:22:54;;;;;;;28.27;15.38;;;0.50;99.90;;;;;;4945367;28;20126;-87
2024/01/07 06:25:20;;;;;;;24.08;13.50;;;0.50;99.90;;;;;;4939390;28;20644;-88
2024/01/07 06:27:46;;;;;;;22.52;12.98;;;0.50;99.90;;;;;;4947001;28;20516;-88
2024/01/07 06:30:12;;;;;;;23.88;13.10;;;0.60;99.90;;;;;;4926338;28;20027;-88
2024/01/07 06:32:38;;;;;;;21.90;11.75;;;0.50;99.90;;;;;;4944052;28;20122;-87
2024/01/07 06:35:04;;;;;;;20.70;11.93;;;0.50;99.90;;;;;;4944376;28;20182;-88
2024/01/07 06:37:30;;;;;;;19.83;11.70;;;0.60;99.90;;;;;;4948799;28;20042;-87
2024/01/07 06:39:58;;;;;;;24.27;12.07;;;0.50;99.90;;;;;;4945329;29;20039;-88
2024/01/07 06:42:24;;;;;;;20.63;12.13;;;0.50;99.90;;;;;;4961681;28;20522;-88
2024/01/07 06:44:50;;;;;;;19.60;12.13;;;0.50;99.90;;;;;;4945631;28;20039;-87
2024/01/07 06:47:16;;;;;;;20.92;12.02;;;0.50;99.90;;;;;;4961005;28;20030;-88
2024/01/07 06:49:41;;;;;;;21.52;12.77;;;0.50;99.90;;;;;;4935726;28;20105;-88
2024/01/07 06:52:07;;;;;;;21.33;12.52;;;0.50;99.90;;;;;;4947142;28;20510;-87
2024/01/07 06:54:33;;;;;;;21.90;13.07;;;0.50;99.90;;;;;;4925537;28;20031;-87
2024/01/07 06:56:59;;;;;;;22.15;11.98;;;0.50;99.90;;;;;;4941850;28;20034;-87
2024/01/07 06:59:25;;;;;;;22.83;12.57;;;0.50;99.90;;;;;;4963313;28;20085;-88
2024/01/07 07:01:50;;;;;;;19.85;11.63;;;0.50;99.90;;;;;;4955688;28;20035;-88
2024/01/07 07:04:16;;;;;;;20.60;11.32;;;0.50;99.90;;;;;;4946896;28;20038;-87
2024/01/07 07:06:42;;;;;;;20.60;11.80;;;0.50;99.90;;;;;;4960939;28;20055;-88
2024/01/07 07:09:08;;;;;;;20.75;11.13;;;0.40;99.90;;;;;;4959352;28;20035;-87
2024/01/07 07:11:33;;;;;;;20.45;11.95;;;0.40;99.90;;;;;;4957787;28;20030;-87
2024/01/07 07:13:59;;;;;;;23.90;13.15;;;0.40;99.90;;;;;;4946282;28;20042;-87
2024/01/07 07:16:25;;;;;;;20.42;12.40;;;0.40;99.90;;;;;;4956408;28;20023;-87
2024/01/07 07:18:52;;;;;;;27.00;14.05;;;0.40;99.90;;;;;;4926617;28;20074;-87
2024/01/07 07:21:18;;;;;;;22.08;12.93;;;0.40;99.90;;;;;;4943945;28;20058;-87
2024/01/07 07:23:43;;;;;;;22.15;12.45;;;0.40;99.90;;;;;;4943268;28;20485;-87
2024/01/07 07:26:09;;;;;;;25.98;13.88;;;0.40;99.90;;;;;;4957661;28;20027;-87
2024/01/07 07:28:35;;;;;;;25.73;13.57;;;0.40;99.90;;;;;;4962005;28;20086;-87
2024/01/07 07:31:00;;;;;;;22.83;11.80;;;0.30;99.90;;;;;;4945819;28;20022;-86
2024/01/07 07:33:26;;;;;;;21.58;12.35;;;0.30;99.90;;;;;;4949570;28;20030;-87
2024/01/07 07:35:52;;;;;;;22.13;11.90;;;0.30;99.90;;;;;;4947238;28;20570;-87
2024/01/07 07:38:18;;;;;;;22.55;12.15;;;0.30;99.90;;;;;;4943543;28;20039;-87
2024/01/07 07:40:45;;;;;;;20.52;10.93;;;0.30;99.90;;;;;;4946364;29;20055;-86
2024/01/07 07:43:10;;;;;;;19.98;11.73;;;0.20;99.90;;;;;;4945820;29;20503;-86
2024/01/07 07:45:36;;;;;;;22.20;11.45;;;0.20;99.90;;;;;;4958896;28;20130;-87
2024/01/07 07:48:02;;;;;;;23.02;12.10;;;0.20;99.90;;;;;;4938340;28;20452;-86
2024/01/07 07:50:28;;;;;;;21.48;11.45;;;0.20;99.90;;;;;;4958889;28;20736;-86
2024/01/07 07:52:53;;;;;;;19.85;11.23;;;0.20;99.90;;;;;;4946705;28;20961;-87
2024/01/07 07:55:19;;;;;;;21.08;11.50;;;0.20;99.90;;;;;;4945044;28;20529;-86
2024/01/07 07:57:46;;;;;;;20.42;11.45;;;0.10;99.90;;;;;;4942971;28;20455;-88
2024/01/07 08:00:12;;;;;;;21.63;12.10;;;0.10;99.90;;;;;;4942004;28;20030;-86
2024/01/07 08:02:39;;;;;;;22.58;11.98;;;0.10;99.90;;;;;;4935466;28;20035;-87
2024/01/07 08:05:07;;;;;;;23.05;12.13;;;0.10;99.90;;;;;;4942173;29;20070;-87
2024/01/07 08:07:32;;;;;;;21.80;12.25;;;0.10;99.90;;;;;;4942623;28;20098;-85
2024/01/07 08:09:58;;;;;;;28.15;13.05;;;0.00;99.90;;;;;;4954381;28;20064;-86
2024/01/07 08:12:24;;;;;;;22.50;12.93;;;0.00;99.90;;;;;;4960594;28;20042;-86
2024/01/07 08:14:50;;;;;;;21.65;12.70;;;0.00;99.90;;;;;;4959672;28;20031;-87
2024/01/07 08:17:16;;;;;;;23.08;13.55;;;0.00;99.90;;;;;;4945686;28;20027;-86
2024/01/07 08:19:42;;;;;;;24.60;11.98;;;0.00;99.90;;;;;;4949702;28;20027;-86
2024/01/07 08:22:09;;;;;;;25.85;13.13;;;0.00;99.90;;;;;;4954589;28;20543;-86
2024/01/07 08:24:35;;;;;;;22.77;11.90;;;-0.10;99.90;;;;;;4957937;28;20041;-85
2024/01/07 08:27:02;;;;;;;21.95;12.27;;;-0.10;99.90;;;;;;4953598;28;20039;-86
2024/01/07 08:29:29;;;;;;;21.70;13.23;;;-0.10;99.90;;;;;;4936333;28;20407;-86
2024/01/07 08:31:54;;;;;;;22.00;11.45;;;0.00;99.90;;;;;;4954704;28;20503;-86
2024/01/07 08:34:20;;;;;;;20.48;11.27;;;-0.10;99.90;;;;;;4938930;28;20032;-86
2024/01/07 08:36:46;;;;;;;23.30;12.02;;;-0.10;99.90;;;;;;4938932;28;20037;-87
2024/01/07 08:39:14;;;;;;;21.27;11.80;;;-0.10;99.90;;;;;;4953318;28;20083;-86
2024/01/07 08:41:40;;;;;;;26.13;13.27;;;-0.10;99.90;;;;;;4953704;28;20556;-87
2024/01/07 08:44:08;;;;;;;22.08;12.10;;;-0.10;99.90;;;;;;4901264;29;20114;-86
2024/01/07 08:46:34;;;;;;;28.20;12.57;;;-0.10;99.90;;;;;;4954211;28;20518;-86
2024/01/07 08:49:00;;;;;;;23.63;12.80;;;-0.10;99.90;;;;;;4953585;28;20066;-87
2024/01/07 08:51:26;;;;;;;20.27;11.50;;;0.00;99.90;;;;;;4934572;29;20107;-86
2024/01/07 08:53:52;;;;;;;21.50;12.07;;;-0.10;99.90;;;;;;4940963;28;20027;-86
2024/01/07 08:56:18;;;;;;;23.70;11.68;;;-0.10;99.90;;;;;;4923400;28;20093;-86
2024/01/07 08:58:43;;;;;;;22.67;12.65;;;-0.10;99.90;;;;;;4928287;29;20031;-86
2024/01/07 09:01:09;;;;;;;23.70;12.95;;;-0.10;99.90;;;;;;4953705;28;20412;-86
2024/01/07 09:03:35;;;;;;;26.60;12.82;;;-0.20;99.90;;;;;;4945045;28;20130;-86
2024/01/07 09:06:00;;;;;;;22.27;12.05;;;-0.10;99.90;;;;;;4946264;28;20561;-86
2024/01/07 09:08:26;;;;;;;24.73;12.05;;;-0.20;99.90;;;;;;4957211;28;20064;-87
2024/01/07 09:10:52;;;;;;;25.38;12.57;;;-0.10;99.90;;;;;;4958086;28;20035;-86
2024/01/07 09:13:18;;;;;;;23.48;13.07;;;-0.10;99.90;;;;;;4950745;29;20039;-85
2024/01/07 09:15:44;;;;;;;25.35;12.50;;;-0.20;99.90;;;;;;4953954;28;20032;-84
2024/01/07 09:18:10;;;;;;;25.58;13.18;;;-0.20;99.90;;;;;;4953583;29;20036;-85
2024/01/07 09:20:35;;;;;;;22.77;12.68;;;-0.20;99.90;;;;;;4943472;28;20085;-86
2024/01/07 09:23:01;;;;;;;21.90;12.73;;;-0.20;99.90;;;;;;4961659;28;20106;-86
2024/01/07 09:25:27;;;;;;;23.50;13.48;;;-0.30;99.90;;;;;;4950659;28;20027;-86
2024/01/07 09:27:53;;;;;;;23.75;13.45;;;-0.30;99.90;;;;;;4946612;28;20032;-87
2024/01/07 09:30:19;;;;;;;21.58;12.60;;;-0.40;99.90;;;;;;4952064;28;20130;-86
2024/01/07 09:32:44;;;;;;;25.05;12.43;;;-0.40;99.90;;;;;;4947779;28;20035;-87
2024/01/07 09:35:10;;;;;;;20.42;13.13;;;-0.40;99.90;;;;;;4968792;28;20042;-85
2024/01/07 09:37:36;;;;;;;20.02;12.10;;;-0.40;99.90;;;;;;4952815;28;20089;-87
2024/01/07 09:40:05;;;;;;;22.70;12.57;;;-0.50;99.90;;;;;;4946135;28;20038;-85
2024/01/07 09:42:31;;;;;;;22.55;13.00;;;-0.50;99.90;;;;;;4938254;28;20028;-85
2024/01/07 09:44:57;;;;;;;24.48;11.88;;;-0.50;99.90;;;;;;4956577;28;20027;-86
2024/01/07 09:47:23;;;;;;;19.45;12.35;;;-0.50;99.90;;;;;;4955430;28;20123;-87
2024/01/07 09:49:49;;;;;;;21.88;11.02;;;-0.50;99.90;;;;;;4923925;28;20024;-86
2024/01/07 09:52:17;;;;;;;22.67;11.73;;;-0.60;99.90;;;;;;4957650;28;20380;-86
2024/01/07 09:54:48;;;;;;;20.83;11.07;;;-0.50;99.90;;;;;;4955999;28;20058;-87
2024/01/07 09:57:13;;;;;;;20.05;9.82;;;-0.60;99.90;;;;;;4954847;28;20031;-85
2024/01/07 09:59:39;;;;;;;19.75;10.32;;;-0.60;99.90;;;;;;4940187;28;20027;-85
2024/01/07 10:02:05;;;;;;;18.92;10.65;;;-0.60;99.90;;;;;;4939040;28;20031;-85
2024/01/07 10:04:31;;;;;;;20.77;10.20;;;-0.60;99.90;;;;;;4934211;29;20036;-86
2024/01/07 10:06:57;;;;;;;19.25;10.18;;;-0.60;99.90;;;;;;4937583;28;20078;-85
2024/01/07 10:09:23;;;;;;;17.65;9.70;;;-0.60;99.90;;;;;;4935171;29;20114;-85
2024/01/07 10:11:53;;;;;;;19.92;9.63;;;-0.60;99.90;;;;;;4937520;28;20028;-87
2024/01/07 10:14:22;;;;;;;18.73;9.73;;;-0.60;99.90;;;;;;4952786;28;20034;-85
2024/01/07 10:16:49;;;;;;;18.27;9.75;;;-0.60;99.90;;;;;;4961168;28;20034;-85
2024/01/07 10:19:20;;;;;;;17.33;9.88;;;-0.60;99.90;;;;;;4950747;28;20135;-86
2024/01/07 10:21:46;;;;;;;17.80;9.13;;;-0.60;99.90;;;;;;4949234;28;20102;-84
2024/01/07 10:24:13;;;;;;;18.67;9.55;;;-0.60;99.90;;;;;;4916512;29;20035;-85
2024/01/07 10:26:40;;;;;;;18.17;9.75;;;-0.60;99.90;;;;;;4918156;29;20393;-86
2024/01/07 10:29:07;;;;;;;17.80;10.23;;;-0.60;99.90;;;;;;4940628;28;20388;-85
2024/01/07 10:31:33;;;;;;;17.45;10.15;;;-0.60;99.90;;;;;;4938489;28;20042;-86
2024/01/07 10:33:59;;;;;;;19.60;9.98;;;-0.50;99.90;;;;;;4934072;28;20041;-86
2024/01/07 10:36:25;;;;;;;19.40;9.80;;;-0.50;99.90;;;;;;4935298;28;20040;-85
2024/01/07 10:38:52;;;;;;;18.20;9.68;;;-0.50;99.90;;;;;;4960562;28;20442;-85
2024/01/07 10:41:19;;;;;;;16.00;8.52;;;-0.50;99.90;;;;;;4959951;28;20057;-87
2024/01/07 10:43:47;;;;;;;17.38;9.35;;;-0.50;99.90;;;;;;4961778;28;20039;-85
2024/01/07 10:46:14;;;;;;;15.07;8.60;;;-0.50;99.90;;;;;;4952808;28;20055;-84
2024/01/07 10:49:06;;;;;;;19.42;9.77;;;-0.60;99.90;;;;;;4951856;28;20039;-85
2024/01/07 10:51:34;;;;;;;14.52;8.45;;;-0.60;99.90;;;;;;4933734;29;20657;-85
2024/01/07 10:54:00;;;;;;;17.38;9.00;;;-0.50;99.90;;;;;;4958399;28;20506;-86
2024/01/07 10:56:43;;;;;;;17.67;9.35;;;-0.60;99.90;;;;;;4934486;28;20071;-84
2024/01/07 10:59:09;;;;;;;18.30;10.38;;;-0.50;99.90;;;;;;4949913;28;20031;-85
2024/01/07 11:01:34;;;;;;;16.77;9.15;;;-0.50;99.90;;;;;;4936792;28;20420;-85
2024/01/07 11:04:10;;;;;;;17.20;9.07;;;-0.60;99.90;;;;;;4941420;28;20031;-85
2024/01/07 11:07:08;;;;;;;17.55;9.57;;;-0.50;99.90;;;;;;4958125;28;20027;-86
2024/01/07 11:10:01;;;;;;;15.98;8.57;;;-0.50;99.90;;;;;;4957527;28;20043;-86
2024/01/07 11:12:27;;;;;;;13.77;8.30;;;-0.50;99.90;;;;;;4943332;28;20507;-85
2024/01/07 11:14:52;;;;;;;16.75;9.65;;;-0.60;99.90;;;;;;4961715;28;20031;-87
2024/01/07 11:17:37;;;;;;;16.42;9.15;;;-0.50;99.90;;;;;;4923259;28;20449;-86
2024/01/07 11:20:33;;;;;;;13.70;8.02;;;-0.60;99.90;;;;;;4960103;28;20030;-85
2024/01/07 11:23:29;;;;;;;16.23;8.57;;;-0.60;99.90;;;;;;4921980;28;20082;-86
2024/01/07 11:25:57;;;;;;;12.15;7.40;;;-0.60;99.90;;;;;;4953968;28;20436;-85
2024/01/07 11:28:42;;;;;;;14.82;8.30;;;-0.60;99.90;;;;;;4938847;29;20032;-85
2024/01/07 11:31:08;;;;;;;14.57;8.27;;;-0.50;99.90;;;;;;4936778;28;20039;-86
2024/01/07 11:33:37;;;;;;;14.82;8.25;;;-0.50;99.90;;;;;;4947754;28;20045;-86
2024/01/07 11:36:04;;;;;;;16.52;8.05;;;-0.50;99.90;;;;;;4939942;29;20745;-86
2024/01/07 11:38:30;;;;;;;14.93;7.68;;;-0.50;99.90;;;;;;4930555;28;20539;-86
2024/01/07 11:40:58;;;;;;;15.63;8.63;;;-0.50;99.90;;;;;;4945569;28;20054;-86
2024/01/07 11:43:24;;;;;;;15.98;8.43;;;-0.50;99.90;;;;;;4946432;28;20034;-86
2024/01/07 11:45:51;;;;;;;13.70;7.85;;;-0.50;99.90;;;;;;4960919;28;20027;-86
2024/01/07 11:48:20;;;;;;;16.75;8.13;;;-0.50;99.90;;;;;;4934664;29;20039;-86
2024/01/07 11:50:46;;;;;;;13.60;7.90;;;-0.50;99.90;;;;;;4958225;28;20030;-85
2024/01/07 11:53:12;;;;;;;14.55;7.07;;;-0.60;99.90;;;;;;4941692;29;20031;-86
2024/01/07 11:55:38;;;;;;;14.40;7.78;;;-0.60;99.90;;;;;;4920865;29;20444;-86
2024/01/07 11:58:04;;;;;;;11.02;7.50;;;-0.60;99.90;;;;;;4945493;28;20574;-86
2024/01/07 12:00:39;;;;;;;11.02;6.63;;;-0.50;99.90;;;;;;4933988;28;20114;-85
2024/01/07 12:03:04;;;;;;;14.25;7.20;;;-0.50;99.90;;;;;;4955045;28;20472;-86
2024/01/07 12:05:31;;;;;;;14.55;7.45;;;-0.50;99.90;;;;;;4928104;28;20043;-86
2024/01/07 12:07:57;;;;;;;10.93;7.15;;;-0.50;99.90;;;;;;4959275;28;20027;-87
2024/01/07 12:10:23;;;;;;;11.43;7.03;;;-0.50;99.90;;;;;;4941951;28;20480;-85
2024/01/07 12:12:52;;;;;;;9.30;5.90;;;-0.50;99.90;;;;;;4956043;28;20034;-86
2024/01/07 12:15:20;;;;;;;12.27;7.43;;;-0.50;99.90;;;;;;4932894;28;20499;-86
2024/01/07 12:17:57;;;;;;;9.40;6.00;;;-0.50;99.90;;;;;;4944966;28;20514;-86
2024/01/07 12:20:23;;;;;;;13.60;7.45;;;-0.50;99.90;;;;;;4938802;28;20801;-86
2024/01/07 12:22:48;;;;;;;11.10;6.90;;;-0.50;99.90;;;;;;4953635;28;20066;-85
2024/01/07 12:25:23;;;;;;;10.32;6.50;;;-0.50;99.90;;;;;;4960544;28;20151;-86
2024/01/07 12:27:52;;;;;;;9.87;6.03;;;-0.60;99.90;;;;;;4942339;28;20031;-85
2024/01/07 12:30:18;;;;;;;8.88;5.60;;;-0.60;99.90;;;;;;4940708;29;20106;-85
2024/01/07 12:32:45;;;;;;;8.25;5.85;;;-0.60;99.90;;;;;;4956863;28;20202;-86
2024/01/07 12:35:10;;;;;;;8.65;5.97;;;-0.60;99.90;;;;;;4951401;28;20034;-86
2024/01/07 12:37:37;;;;;;;9.88;5.97;;;-0.60;99.90;;;;;;4964233;28;20093;-84